createdAt,value
2019-06-01T00:00:28.069Z,15.30
2019-06-01T00:01:28.059Z,15.33
2019-06-01T00:02:28.062Z,15.41
2019-06-01T00:03:28.046Z,15.36
2019-06-01T00:04:28.025Z,15.36
2019-06-01T00:05:28.015Z,15.30
2019-06-01T00:06:28.011Z,15.36
2019-06-01T00:07:27.995Z,15.36
2019-06-01T00:08:27.983Z,15.33
2019-06-01T00:09:27.982Z,15.26
2019-06-01T00:10:27.963Z,15.24
2019-06-01T00:11:27.951Z,15.26
2019-06-01T00:12:27.941Z,15.24
2019-06-01T00:13:27.929Z,15.28
2019-06-01T00:14:27.919Z,15.33
2019-06-01T00:15:27.922Z,15.36
2019-06-01T00:16:27.901Z,15.35
2019-06-01T00:17:27.888Z,15.28
2019-06-01T00:18:27.875Z,15.24
2019-06-01T00:19:27.866Z,15.28
2019-06-01T00:20:27.856Z,15.20
2019-06-01T00:21:27.859Z,15.19
2019-06-01T00:22:27.833Z,15.23
2019-06-01T00:23:27.833Z,15.13
2019-06-01T00:24:27.812Z,15.12
2019-06-01T00:25:27.804Z,15.13
2019-06-01T00:26:27.795Z,15.12
2019-06-01T00:27:27.791Z,15.05
2019-06-01T00:28:27.772Z,15.01
2019-06-01T00:29:27.759Z,15.08
2019-06-01T00:30:27.750Z,15.17
2019-06-01T00:31:27.738Z,15.13
2019-06-01T00:32:27.730Z,15.12
2019-06-01T00:33:27.741Z,15.05
2019-06-01T00:34:27.707Z,15.13
2019-06-01T00:35:27.700Z,15.06
2019-06-01T00:36:27.687Z,15.02
2019-06-01T00:37:27.673Z,15.06
2019-06-01T00:38:27.663Z,14.98
2019-06-01T00:39:27.664Z,14.98
2019-06-01T00:40:27.641Z,14.87
2019-06-01T00:41:27.630Z,14.95
2019-06-01T00:42:27.620Z,14.87
2019-06-01T00:43:27.610Z,14.84
2019-06-01T00:44:27.602Z,14.75
2019-06-01T00:45:27.608Z,14.75
2019-06-01T00:46:27.588Z,14.75
2019-06-01T00:47:27.567Z,14.83
2019-06-01T00:48:27.581Z,14.69
2019-06-01T00:49:27.566Z,14.68
2019-06-01T00:50:27.536Z,14.69
2019-06-01T00:51:27.534Z,14.71
2019-06-01T00:52:27.514Z,14.75
2019-06-01T00:53:27.505Z,14.72
2019-06-01T00:54:27.495Z,14.68
2019-06-01T00:55:27.481Z,14.67
2019-06-01T00:56:27.471Z,14.65
2019-06-01T00:57:27.480Z,14.67
2019-06-01T00:58:27.456Z,14.71
2019-06-01T00:59:27.440Z,14.60
2019-06-01T01:00:42.801Z,14.74
2019-06-01T01:01:28.416Z,14.65
2019-06-01T01:02:27.410Z,14.65
2019-06-01T01:03:27.405Z,14.62
2019-06-01T01:04:27.390Z,14.61
2019-06-01T01:05:27.380Z,14.56
2019-06-01T01:06:27.372Z,14.53
2019-06-01T01:07:27.349Z,14.50
2019-06-01T01:08:27.340Z,14.52
2019-06-01T01:09:27.341Z,14.49
2019-06-01T01:10:27.325Z,14.39
2019-06-01T01:11:27.306Z,14.43
2019-06-01T01:12:27.293Z,14.37
2019-06-01T01:13:27.288Z,14.46
2019-06-01T01:14:27.272Z,14.34
2019-06-01T01:15:27.273Z,14.42
2019-06-01T01:16:27.251Z,14.38
2019-06-01T01:17:27.247Z,14.34
2019-06-01T01:18:27.228Z,14.39
2019-06-01T01:19:27.216Z,14.35
2019-06-01T01:20:27.206Z,14.35
2019-06-01T01:21:27.205Z,14.39
2019-06-01T01:22:27.185Z,14.35
2019-06-01T01:23:27.189Z,14.39
2019-06-01T01:24:27.162Z,14.46
2019-06-01T01:25:27.181Z,14.43
2019-06-01T01:26:27.141Z,14.38
2019-06-01T01:27:27.144Z,14.35
2019-06-01T01:28:27.125Z,14.32
2019-06-01T01:29:27.106Z,14.38
2019-06-01T01:30:27.139Z,14.38
2019-06-01T01:31:27.087Z,14.29
2019-06-01T01:32:27.074Z,14.27
2019-06-01T01:33:27.072Z,14.29
2019-06-01T01:34:27.054Z,14.29
2019-06-01T01:35:27.042Z,14.31
2019-06-01T01:36:27.030Z,14.29
2019-06-01T01:37:27.018Z,14.29
2019-06-01T01:38:27.018Z,14.32
2019-06-01T01:39:27.006Z,14.31
2019-06-01T01:40:26.986Z,14.32
2019-06-01T01:41:26.973Z,14.35
2019-06-01T01:42:26.963Z,14.29
2019-06-01T01:43:26.951Z,14.32
2019-06-01T01:44:26.949Z,14.27
2019-06-01T01:45:26.940Z,14.28
2019-06-01T01:46:26.924Z,14.29
2019-06-01T01:47:26.908Z,14.28
2019-06-01T01:48:26.899Z,14.32
2019-06-01T01:49:26.887Z,14.29
2019-06-01T01:50:26.876Z,14.35
2019-06-01T01:51:26.883Z,14.38
2019-06-01T01:52:26.855Z,14.32
2019-06-01T01:53:26.847Z,14.32
2019-06-01T01:54:26.832Z,14.27
2019-06-01T01:55:26.820Z,14.42
2019-06-01T01:56:26.810Z,14.31
2019-06-01T01:57:26.817Z,14.25
2019-06-01T01:58:26.789Z,14.37
2019-06-01T01:59:26.784Z,14.31
2019-06-01T02:00:26.771Z,14.31
2019-06-01T02:01:26.757Z,14.28
2019-06-01T02:02:26.748Z,14.34
2019-06-01T02:03:26.746Z,14.28
2019-06-01T02:04:26.727Z,14.34
2019-06-01T02:05:26.715Z,14.34
2019-06-01T02:06:28.988Z,14.21
2019-06-01T02:07:26.692Z,14.19
2019-06-01T02:08:26.681Z,14.20
2019-06-01T02:09:26.698Z,14.16
2019-06-01T02:10:26.661Z,14.13
2019-06-01T02:11:26.650Z,14.13
2019-06-01T02:12:26.639Z,14.16
2019-06-01T02:13:26.637Z,14.13
2019-06-01T02:14:26.618Z,14.19
2019-06-01T02:15:26.618Z,14.16
2019-06-01T02:16:26.598Z,14.13
2019-06-01T02:17:26.608Z,14.19
2019-06-01T02:18:26.574Z,14.14
2019-06-01T02:19:26.565Z,14.12
2019-06-01T02:20:26.554Z,14.16
2019-06-01T02:21:26.562Z,14.16
2019-06-01T02:22:26.534Z,14.14
2019-06-01T02:23:26.521Z,14.12
2019-06-01T02:24:26.509Z,14.06
2019-06-01T02:25:26.497Z,14.07
2019-06-01T02:26:26.488Z,14.12
2019-06-01T02:27:26.491Z,14.06
2019-06-01T02:28:26.466Z,14.07
2019-06-01T02:29:26.455Z,14.01
2019-06-01T02:30:26.476Z,14.02
2019-06-01T02:31:40.558Z,13.94
2019-06-01T02:32:27.449Z,13.88
2019-06-01T02:33:26.412Z,13.83
2019-06-01T02:34:26.403Z,13.88
2019-06-01T02:35:26.395Z,13.91
2019-06-01T02:36:26.382Z,13.88
2019-06-01T02:37:26.370Z,13.84
2019-06-01T02:38:26.373Z,13.89
2019-06-01T02:39:26.350Z,13.89
2019-06-01T02:40:26.342Z,13.89
2019-06-01T02:41:26.328Z,13.79
2019-06-01T02:42:26.318Z,13.79
2019-06-01T02:43:26.306Z,13.81
2019-06-01T02:44:26.310Z,13.79
2019-06-01T02:45:26.287Z,13.80
2019-06-01T02:46:26.283Z,13.81
2019-06-01T02:47:26.266Z,13.89
2019-06-01T02:48:26.254Z,13.84
2019-06-01T02:49:26.260Z,13.76
2019-06-01T02:50:26.248Z,13.80
2019-06-01T02:51:26.221Z,13.87
2019-06-01T02:52:26.211Z,13.81
2019-06-01T02:53:26.200Z,13.80
2019-06-01T02:54:26.191Z,13.76
2019-06-01T02:55:26.186Z,13.77
2019-06-01T02:56:26.178Z,13.76
2019-06-01T02:57:26.156Z,13.74
2019-06-01T02:58:26.147Z,13.70
2019-06-01T02:59:26.136Z,13.65
2019-06-01T03:00:26.124Z,13.70
2019-06-01T03:01:26.115Z,13.63
2019-06-01T03:02:26.114Z,13.77
2019-06-01T03:03:26.094Z,13.74
2019-06-01T03:04:26.084Z,13.80
2019-06-01T03:05:26.071Z,13.80
2019-06-01T03:06:26.067Z,13.79
2019-06-01T03:07:26.051Z,13.77
2019-06-01T03:08:26.058Z,13.81
2019-06-01T03:09:26.045Z,13.76
2019-06-01T03:10:26.017Z,13.77
2019-06-01T03:11:26.008Z,13.77
2019-06-01T03:12:25.998Z,13.69
2019-06-01T03:13:25.987Z,13.61
2019-06-01T03:14:26.014Z,13.52
2019-06-01T03:15:25.967Z,13.51
2019-06-01T03:16:25.954Z,13.54
2019-06-01T03:17:25.943Z,13.47
2019-06-01T03:18:25.932Z,13.47
2019-06-01T03:19:25.922Z,13.41
2019-06-01T03:20:25.923Z,13.49
2019-06-01T03:21:25.900Z,13.49
2019-06-01T03:22:25.890Z,13.47
2019-06-01T03:23:25.881Z,13.40
2019-06-01T03:24:25.868Z,13.47
2019-06-01T03:25:25.860Z,13.52
2019-06-01T03:26:25.861Z,13.51
2019-06-01T03:27:25.836Z,13.51
2019-06-01T03:28:25.826Z,13.58
2019-06-01T03:29:25.815Z,13.61
2019-06-01T03:30:25.804Z,13.58
2019-06-01T03:31:25.794Z,13.58
2019-06-01T03:32:36.125Z,13.63
2019-06-01T03:33:26.771Z,13.67
2019-06-01T03:34:25.765Z,13.62
2019-06-01T03:35:25.751Z,13.74
2019-06-01T03:36:25.749Z,13.81
2019-06-01T03:37:25.730Z,13.76
2019-06-01T03:38:25.734Z,13.77
2019-06-01T03:39:25.718Z,13.79
2019-06-01T03:40:25.698Z,13.81
2019-06-01T03:41:25.686Z,13.79
2019-06-01T03:42:25.675Z,13.77
2019-06-01T03:43:25.665Z,13.91
2019-06-01T03:44:25.672Z,13.80
2019-06-01T03:45:25.643Z,13.81
2019-06-01T03:46:25.647Z,13.92
2019-06-01T03:47:25.625Z,13.96
2019-06-01T03:48:25.612Z,14.04
2019-06-01T03:49:25.598Z,14.06
2019-06-01T03:50:25.607Z,14.12
2019-06-01T03:51:25.577Z,14.07
2019-06-01T03:52:25.566Z,14.10
2019-06-01T03:53:25.555Z,14.21
2019-06-01T03:54:25.543Z,14.17
2019-06-01T03:55:25.535Z,14.27
2019-06-01T03:56:25.552Z,14.28
2019-06-01T03:57:25.510Z,14.29
2019-06-01T03:58:25.501Z,14.43
2019-06-01T03:59:25.492Z,14.43
2019-06-01T04:00:25.486Z,14.52
2019-06-01T04:01:25.470Z,14.54
2019-06-01T04:02:33.089Z,14.52
2019-06-01T04:03:26.441Z,14.56
2019-06-01T04:04:25.438Z,14.61
2019-06-01T04:05:25.424Z,14.65
2019-06-01T04:06:25.411Z,14.61
2019-06-01T04:07:25.400Z,14.60
2019-06-01T04:08:25.406Z,14.60
2019-06-01T04:09:25.404Z,14.57
2019-06-01T04:10:25.369Z,14.61
2019-06-01T04:11:25.360Z,14.61
2019-06-01T04:12:25.347Z,14.61
2019-06-01T04:13:25.335Z,14.62
2019-06-01T04:14:25.338Z,14.61
2019-06-01T04:15:25.315Z,14.69
2019-06-01T04:16:25.307Z,14.81
2019-06-01T04:17:25.294Z,14.78
2019-06-01T04:18:25.287Z,14.83
2019-06-01T04:19:25.273Z,14.88
2019-06-01T04:20:25.278Z,14.95
2019-06-01T04:21:25.251Z,14.94
2019-06-01T04:22:25.248Z,15.01
2019-06-01T04:23:25.228Z,15.12
2019-06-01T04:24:25.217Z,15.27
2019-06-01T04:25:25.206Z,15.30
2019-06-01T04:26:25.205Z,15.33
2019-06-01T04:27:25.183Z,15.36
2019-06-01T04:28:25.175Z,15.45
2019-06-01T04:29:25.162Z,15.42
2019-06-01T04:30:25.155Z,15.48
2019-06-01T04:31:25.141Z,15.48
2019-06-01T04:32:25.147Z,15.51
2019-06-01T04:33:25.120Z,15.57
2019-06-01T04:34:25.110Z,15.56
2019-06-01T04:35:25.099Z,15.45
2019-06-01T04:36:25.088Z,15.46
2019-06-01T04:37:25.078Z,15.42
2019-06-01T04:38:25.077Z,15.43
2019-06-01T04:39:25.062Z,15.49
2019-06-01T04:40:25.046Z,15.52
2019-06-01T04:41:25.036Z,15.48
2019-06-01T04:42:25.023Z,15.45
2019-06-01T04:43:25.013Z,15.48
2019-06-01T04:44:25.017Z,15.52
2019-06-01T04:45:24.990Z,15.46
2019-06-01T04:46:24.986Z,15.42
2019-06-01T04:47:24.970Z,15.38
2019-06-01T04:48:24.958Z,15.43
2019-06-01T04:49:24.948Z,15.43
2019-06-01T04:50:24.948Z,15.51
2019-06-01T04:51:24.933Z,15.52
2019-06-01T04:52:24.915Z,15.57
2019-06-01T04:53:24.904Z,15.75
2019-06-01T04:54:24.893Z,15.81
2019-06-01T04:55:24.883Z,15.89
2019-06-01T04:56:24.883Z,16.04
2019-06-01T04:57:24.860Z,16.23
2019-06-01T04:58:24.848Z,16.33
2019-06-01T04:59:24.841Z,16.37
2019-06-01T05:00:27.855Z,16.44
2019-06-01T05:01:24.817Z,16.56
2019-06-01T05:02:24.820Z,16.77
2019-06-01T05:03:24.795Z,16.90
2019-06-01T05:04:24.785Z,16.90
2019-06-01T05:05:24.778Z,16.98
2019-06-01T05:06:24.763Z,16.99
2019-06-01T05:07:24.752Z,16.99
2019-06-01T05:08:24.768Z,17.04
2019-06-01T05:09:24.730Z,17.15
2019-06-01T05:10:24.718Z,17.28
2019-06-01T05:11:24.710Z,17.41
2019-06-01T05:12:24.697Z,17.64
2019-06-01T05:13:24.685Z,17.82
2019-06-01T05:14:24.685Z,18.00
2019-06-01T05:15:24.667Z,18.19
2019-06-01T05:16:24.665Z,18.28
2019-06-01T05:17:24.645Z,18.54
2019-06-01T05:18:24.633Z,18.44
2019-06-01T05:19:24.624Z,18.54
2019-06-01T05:20:24.620Z,18.83
2019-06-01T05:21:24.600Z,19.11
2019-06-01T05:22:24.589Z,19.31
2019-06-01T05:23:24.579Z,19.18
2019-06-01T05:24:24.569Z,19.14
2019-06-01T05:25:24.556Z,19.36
2019-06-01T05:26:24.565Z,19.51
2019-06-01T05:27:24.535Z,19.48
2019-06-01T05:28:24.523Z,19.60
2019-06-01T05:29:24.513Z,19.58
2019-06-01T05:30:24.502Z,19.73
2019-06-01T05:31:25.395Z,19.75
2019-06-01T05:32:24.498Z,19.68
2019-06-01T05:33:36.470Z,19.91
2019-06-01T05:34:25.458Z,19.97
2019-06-01T05:35:24.450Z,20.13
2019-06-01T05:36:24.438Z,20.10
2019-06-01T05:37:24.437Z,20.25
2019-06-01T05:38:24.429Z,20.41
2019-06-01T05:39:24.407Z,20.39
2019-06-01T05:40:24.398Z,20.49
2019-06-01T05:41:24.383Z,20.24
2019-06-01T05:42:24.373Z,20.23
2019-06-01T05:43:24.366Z,20.31
2019-06-01T05:44:24.381Z,20.27
2019-06-01T05:45:24.364Z,20.38
2019-06-01T05:46:24.331Z,20.51
2019-06-01T05:47:24.331Z,20.66
2019-06-01T05:48:28.491Z,20.84
2019-06-01T05:49:25.307Z,21.06
2019-06-01T05:50:24.287Z,21.13
2019-06-01T05:51:24.277Z,20.95
2019-06-01T05:52:24.267Z,20.93
2019-06-01T05:53:24.256Z,20.84
2019-06-01T05:54:24.248Z,20.62
2019-06-01T05:55:24.245Z,20.43
2019-06-01T05:56:24.224Z,20.24
2019-06-01T05:57:24.214Z,20.46
2019-06-01T05:58:24.201Z,20.71
2019-06-01T05:59:24.192Z,20.80
2019-06-01T06:00:24.183Z,21.05
2019-06-01T06:01:24.185Z,20.86
2019-06-01T06:02:24.158Z,20.79
2019-06-01T06:03:39.536Z,21.04
2019-06-01T06:04:25.137Z,21.16
2019-06-01T06:05:24.129Z,21.21
2019-06-01T06:06:24.118Z,21.34
2019-06-01T06:07:24.129Z,21.59
2019-06-01T06:08:24.094Z,21.79
2019-06-01T06:09:24.083Z,21.85
2019-06-01T06:10:24.075Z,22.07
2019-06-01T06:11:24.064Z,22.10
2019-06-01T06:12:24.055Z,22.32
2019-06-01T06:13:24.061Z,22.37
2019-06-01T06:14:24.031Z,22.50
2019-06-01T06:15:24.022Z,22.75
2019-06-01T06:16:24.011Z,22.84
2019-06-01T06:17:24.395Z,22.99
2019-06-01T06:18:23.991Z,22.99
2019-06-01T06:19:23.989Z,23.02
2019-06-01T06:20:23.967Z,23.22
2019-06-01T06:21:23.957Z,23.31
2019-06-01T06:22:23.947Z,23.39
2019-06-01T06:23:23.937Z,23.45
2019-06-01T06:24:23.926Z,23.60
2019-06-01T06:25:28.209Z,23.61
2019-06-01T06:26:24.904Z,23.53
2019-06-01T06:27:23.897Z,23.60
2019-06-01T06:28:26.618Z,23.71
2019-06-01T06:29:23.875Z,23.65
2019-06-01T06:30:23.862Z,23.76
2019-06-01T06:31:23.866Z,23.97
2019-06-01T06:32:23.842Z,23.89
2019-06-01T06:33:23.830Z,24.08
2019-06-01T06:34:23.820Z,24.02
2019-06-01T06:35:23.809Z,24.19
2019-06-01T06:36:23.895Z,24.26
2019-06-01T06:37:23.942Z,24.41
2019-06-01T06:38:24.062Z,24.41
2019-06-01T06:39:24.239Z,24.31
2019-06-01T06:40:24.290Z,24.23
2019-06-01T06:41:24.462Z,24.32
2019-06-01T06:42:24.475Z,24.23
2019-06-01T06:43:32.438Z,24.23
2019-06-01T06:44:24.880Z,24.24
2019-06-01T06:45:24.853Z,24.23
2019-06-01T06:46:24.828Z,24.20
2019-06-01T06:47:23.961Z,24.23
2019-06-01T06:48:23.675Z,24.37
2019-06-01T06:49:23.687Z,24.45
2019-06-01T06:50:23.672Z,24.27
2019-06-01T06:51:23.649Z,24.42
2019-06-01T06:52:23.727Z,24.38
2019-06-01T06:53:32.650Z,24.49
2019-06-01T06:54:25.931Z,24.45
2019-06-01T06:55:24.052Z,24.41
2019-06-01T06:56:24.030Z,24.44
2019-06-01T06:57:24.234Z,24.57
2019-06-01T06:58:24.457Z,24.56
2019-06-01T06:59:24.606Z,24.45
2019-06-01T07:00:24.809Z,24.29
2019-06-01T07:01:24.775Z,24.26
2019-06-01T07:02:23.534Z,24.24
2019-06-01T07:03:23.521Z,24.44
2019-06-01T07:04:23.524Z,24.56
2019-06-01T07:05:23.553Z,24.64
2019-06-01T07:06:23.689Z,24.57
2019-06-01T07:07:23.792Z,24.54
2019-06-01T07:08:23.897Z,24.35
2019-06-01T07:09:24.070Z,24.31
2019-06-01T07:10:24.253Z,24.27
2019-06-01T07:11:23.530Z,24.02
2019-06-01T07:12:23.440Z,24.07
2019-06-01T07:13:23.473Z,24.04
2019-06-01T07:14:23.568Z,23.97
2019-06-01T07:15:23.521Z,23.90
2019-06-01T07:16:23.530Z,23.85
2019-06-01T07:17:23.601Z,23.94
2019-06-01T07:18:23.739Z,23.98
2019-06-01T07:19:23.775Z,24.02
2019-06-01T07:20:23.694Z,24.05
2019-06-01T07:21:23.765Z,24.05
2019-06-01T07:22:23.821Z,24.07
2019-06-01T07:23:23.851Z,24.14
2019-06-01T07:24:23.928Z,24.27
2019-06-01T07:25:23.296Z,24.41
2019-06-01T07:26:24.084Z,24.44
2019-06-01T07:27:24.121Z,24.52
2019-06-01T07:28:24.138Z,24.60
2019-06-01T07:29:24.199Z,24.69
2019-06-01T07:30:24.242Z,24.59
2019-06-01T07:31:24.229Z,24.71
2019-06-01T07:32:24.626Z,24.68
2019-06-01T07:33:24.293Z,24.77
2019-06-01T07:34:35.562Z,24.59
2019-06-01T07:35:24.480Z,24.52
2019-06-01T07:36:24.399Z,24.45
2019-06-01T07:37:24.358Z,24.42
2019-06-01T07:38:24.521Z,24.35
2019-06-01T07:39:24.454Z,24.44
2019-06-01T07:40:23.138Z,24.49
2019-06-01T07:41:23.141Z,24.45
2019-06-01T07:42:24.770Z,24.27
2019-06-01T07:43:23.105Z,24.20
2019-06-01T07:44:23.096Z,24.17
2019-06-01T07:45:23.084Z,24.20
2019-06-01T07:46:23.076Z,24.34
2019-06-01T07:47:23.074Z,24.45
2019-06-01T07:48:23.181Z,24.42
2019-06-01T07:49:23.301Z,24.45
2019-06-01T07:50:23.934Z,24.49
2019-06-01T07:51:23.254Z,24.39
2019-06-01T07:52:24.110Z,24.45
2019-06-01T07:53:24.061Z,24.47
2019-06-01T07:54:24.748Z,24.34
2019-06-01T07:55:23.505Z,24.38
2019-06-01T07:56:24.011Z,24.42
2019-06-01T07:57:23.560Z,24.67
2019-06-01T07:58:22.949Z,24.75
2019-06-01T07:59:24.421Z,24.76
2019-06-01T08:00:24.051Z,24.75
2019-06-01T08:01:24.976Z,24.49
2019-06-01T08:02:25.864Z,24.44
2019-06-01T08:03:26.084Z,24.47
2019-06-01T08:04:24.647Z,24.41
2019-06-01T08:05:24.727Z,24.45
2019-06-01T08:06:23.980Z,24.50
2019-06-01T08:07:23.368Z,24.52
2019-06-01T08:08:23.360Z,24.61
2019-06-01T08:09:24.517Z,24.64
2019-06-01T08:10:24.442Z,24.76
2019-06-01T08:11:25.004Z,24.77
2019-06-01T08:12:23.797Z,24.83
2019-06-01T08:13:23.420Z,24.77
2019-06-01T08:14:22.777Z,24.79
2019-06-01T08:15:23.551Z,24.79
2019-06-01T08:16:23.676Z,24.82
2019-06-01T08:17:24.073Z,24.87
2019-06-01T08:18:23.889Z,24.75
2019-06-01T08:19:23.848Z,24.82
2019-06-01T08:20:23.866Z,24.87
2019-06-01T08:21:23.894Z,24.92
2019-06-01T08:22:23.769Z,24.98
2019-06-01T08:23:23.789Z,25.05
2019-06-01T08:24:22.672Z,25.10
2019-06-01T08:25:22.664Z,25.02
2019-06-01T08:26:22.667Z,25.07
2019-06-01T08:27:22.643Z,25.06
2019-06-01T08:28:22.645Z,25.09
2019-06-01T08:29:22.746Z,25.09
2019-06-01T08:30:22.647Z,25.01
2019-06-01T08:31:22.650Z,25.00
2019-06-01T08:32:22.747Z,24.90
2019-06-01T08:33:26.602Z,24.80
2019-06-01T08:34:24.703Z,24.67
2019-06-01T08:35:22.850Z,24.57
2019-06-01T08:36:23.174Z,24.56
2019-06-01T08:37:23.476Z,24.68
2019-06-01T08:38:23.345Z,24.77
2019-06-01T08:39:23.485Z,24.57
2019-06-01T08:40:23.311Z,24.42
2019-06-01T08:41:23.394Z,24.32
2019-06-01T08:42:23.439Z,24.27
2019-06-01T08:43:23.547Z,24.29
2019-06-01T08:44:23.551Z,24.22
2019-06-01T08:45:23.539Z,24.17
2019-06-01T08:46:23.631Z,24.31
2019-06-01T08:47:23.568Z,24.47
2019-06-01T08:48:23.580Z,24.59
2019-06-01T08:49:23.803Z,24.69
2019-06-01T08:50:23.726Z,24.68
2019-06-01T08:51:23.845Z,24.80
2019-06-01T08:52:23.775Z,24.83
2019-06-01T08:53:22.370Z,24.83
2019-06-01T08:54:22.361Z,24.94
2019-06-01T08:55:22.350Z,24.94
2019-06-01T08:56:22.341Z,25.12
2019-06-01T08:57:22.331Z,25.22
2019-06-01T08:58:22.331Z,25.28
2019-06-01T08:59:22.320Z,25.37
2019-06-01T09:00:22.300Z,25.31
2019-06-01T09:01:22.288Z,25.35
2019-06-01T09:02:22.304Z,25.44
2019-06-01T09:03:22.281Z,25.56
2019-06-01T09:04:22.267Z,25.59
2019-06-01T09:05:25.830Z,25.64
2019-06-01T09:06:22.235Z,25.65
2019-06-01T09:07:22.226Z,25.62
2019-06-01T09:08:23.951Z,25.53
2019-06-01T09:09:22.202Z,25.39
2019-06-01T09:10:22.204Z,25.25
2019-06-01T09:11:22.182Z,25.15
2019-06-01T09:12:22.171Z,25.16
2019-06-01T09:13:22.160Z,25.15
2019-06-01T09:14:22.150Z,25.17
2019-06-01T09:15:22.139Z,25.22
2019-06-01T09:16:22.140Z,25.20
2019-06-01T09:17:22.118Z,25.07
2019-06-01T09:18:22.116Z,25.16
2019-06-01T09:19:22.098Z,25.13
2019-06-01T09:20:22.089Z,24.98
2019-06-01T09:21:22.075Z,25.00
2019-06-01T09:22:22.078Z,25.01
2019-06-01T09:23:22.054Z,24.94
2019-06-01T09:24:22.084Z,25.05
2019-06-01T09:25:22.041Z,24.97
2019-06-01T09:26:22.023Z,25.01
2019-06-01T09:27:22.012Z,25.07
2019-06-01T09:28:22.036Z,25.15
2019-06-01T09:29:21.993Z,25.20
2019-06-01T09:30:21.984Z,25.25
2019-06-01T09:31:21.990Z,25.34
2019-06-01T09:32:21.960Z,25.43
2019-06-01T09:33:21.948Z,25.57
2019-06-01T09:34:21.949Z,25.62
2019-06-01T09:35:21.929Z,25.50
2019-06-01T09:36:21.918Z,25.39
2019-06-01T09:37:21.907Z,25.35
2019-06-01T09:38:21.901Z,25.50
2019-06-01T09:39:21.889Z,25.44
2019-06-01T09:40:21.886Z,25.44
2019-06-01T09:41:21.869Z,25.43
2019-06-01T09:42:21.858Z,25.50
2019-06-01T09:43:21.849Z,25.62
2019-06-01T09:44:21.839Z,25.61
2019-06-01T09:45:21.825Z,25.64
2019-06-01T09:46:21.826Z,25.67
2019-06-01T09:47:21.805Z,25.74
2019-06-01T09:48:21.794Z,25.71
2019-06-01T09:49:21.784Z,25.69
2019-06-01T09:50:21.791Z,25.82
2019-06-01T09:51:21.764Z,25.98
2019-06-01T09:52:21.765Z,25.83
2019-06-01T09:53:21.744Z,25.77
2019-06-01T09:54:21.733Z,25.72
2019-06-01T09:55:21.725Z,25.75
2019-06-01T09:56:21.712Z,25.83
2019-06-01T09:57:21.703Z,25.75
2019-06-01T09:58:21.702Z,25.86
2019-06-01T09:59:21.685Z,25.75
2019-06-01T10:00:21.672Z,25.91
2019-06-01T10:01:21.662Z,25.82
2019-06-01T10:02:21.650Z,25.77
2019-06-01T10:03:21.640Z,25.79
2019-06-01T10:04:21.641Z,25.74
2019-06-01T10:05:21.619Z,25.71
2019-06-01T10:06:21.610Z,25.77
2019-06-01T10:07:21.601Z,25.65
2019-06-01T10:08:21.589Z,25.54
2019-06-01T10:09:21.577Z,25.59
2019-06-01T10:10:21.596Z,25.52
2019-06-01T10:11:21.558Z,25.53
2019-06-01T10:12:21.575Z,25.59
2019-06-01T10:13:21.540Z,25.53
2019-06-01T10:14:21.525Z,25.52
2019-06-01T10:15:21.518Z,25.43
2019-06-01T10:16:21.516Z,25.52
2019-06-01T10:17:21.496Z,25.59
2019-06-01T10:18:21.487Z,25.56
2019-06-01T10:19:21.474Z,25.74
2019-06-01T10:20:21.470Z,25.71
2019-06-01T10:21:21.451Z,25.80
2019-06-01T10:22:21.469Z,25.91
2019-06-01T10:23:21.431Z,26.06
2019-06-01T10:24:21.431Z,26.04
2019-06-01T10:25:21.416Z,26.08
2019-06-01T10:26:21.412Z,26.20
2019-06-01T10:27:21.392Z,25.99
2019-06-01T10:28:21.397Z,25.94
2019-06-01T10:29:21.372Z,26.02
2019-06-01T10:30:21.376Z,26.01
2019-06-01T10:31:21.353Z,25.82
2019-06-01T10:32:21.347Z,25.84
2019-06-01T10:33:21.331Z,25.77
2019-06-01T10:34:21.332Z,25.74
2019-06-01T10:35:21.312Z,25.74
2019-06-01T10:36:21.733Z,25.74
2019-06-01T10:37:21.306Z,25.71
2019-06-01T10:38:21.279Z,25.68
2019-06-01T10:39:21.274Z,25.65
2019-06-01T10:40:21.270Z,25.59
2019-06-01T10:41:21.253Z,25.68
2019-06-01T10:42:21.239Z,25.72
2019-06-01T10:43:21.228Z,25.72
2019-06-01T10:44:21.217Z,25.67
2019-06-01T10:45:21.303Z,25.77
2019-06-01T10:46:21.215Z,25.79
2019-06-01T10:47:21.187Z,25.77
2019-06-01T10:48:21.182Z,25.77
2019-06-01T10:49:21.167Z,25.82
2019-06-01T10:50:21.158Z,25.74
2019-06-01T10:51:21.228Z,25.82
2019-06-01T10:52:21.160Z,25.74
2019-06-01T10:53:21.128Z,25.61
2019-06-01T10:54:21.113Z,25.67
2019-06-01T10:55:21.104Z,25.74
2019-06-01T10:56:21.094Z,25.71
2019-06-01T10:57:21.084Z,25.82
2019-06-01T10:58:21.090Z,25.86
2019-06-01T10:59:21.061Z,25.82
2019-06-01T11:00:37.048Z,25.82
2019-06-01T11:01:22.039Z,25.75
2019-06-01T11:02:21.030Z,25.82
2019-06-01T11:03:21.025Z,25.75
2019-06-01T11:04:21.021Z,25.82
2019-06-01T11:05:20.998Z,25.74
2019-06-01T11:06:36.182Z,25.77
2019-06-01T11:07:21.977Z,25.72
2019-06-01T11:08:20.966Z,25.79
2019-06-01T11:09:20.961Z,25.93
2019-06-01T11:10:20.957Z,25.93
2019-06-01T11:11:20.935Z,25.87
2019-06-01T11:12:20.924Z,25.84
2019-06-01T11:13:20.916Z,25.82
2019-06-01T11:14:20.902Z,25.93
2019-06-01T11:15:20.899Z,25.90
2019-06-01T11:16:20.893Z,25.94
2019-06-01T11:17:20.874Z,25.89
2019-06-01T11:18:20.859Z,25.94
2019-06-01T11:19:20.852Z,25.94
2019-06-01T11:20:20.841Z,25.93
2019-06-01T11:21:20.828Z,25.91
2019-06-01T11:22:20.828Z,26.05
2019-06-01T11:23:20.815Z,26.12
2019-06-01T11:24:20.796Z,26.20
2019-06-01T11:25:20.785Z,26.22
2019-06-01T11:26:20.777Z,26.24
2019-06-01T11:27:20.763Z,26.25
2019-06-01T11:28:20.766Z,26.21
2019-06-01T11:29:20.751Z,26.25
2019-06-01T11:30:20.733Z,26.29
2019-06-01T11:31:20.722Z,26.22
2019-06-01T11:32:20.713Z,26.24
2019-06-01T11:33:20.702Z,26.27
2019-06-01T11:34:20.701Z,26.25
2019-06-01T11:35:20.681Z,26.28
2019-06-01T11:36:20.672Z,26.25
2019-06-01T11:37:20.678Z,26.31
2019-06-01T11:38:20.649Z,26.42
2019-06-01T11:39:20.638Z,26.47
2019-06-01T11:40:20.668Z,26.43
2019-06-01T11:41:20.618Z,26.42
2019-06-01T11:42:20.609Z,26.44
2019-06-01T11:43:20.596Z,26.46
2019-06-01T11:44:20.587Z,26.49
2019-06-01T11:45:20.575Z,26.55
2019-06-01T11:46:20.578Z,26.46
2019-06-01T11:47:20.557Z,26.49
2019-06-01T11:48:20.544Z,26.43
2019-06-01T11:49:21.510Z,26.47
2019-06-01T11:50:20.524Z,26.57
2019-06-01T11:51:20.513Z,26.64
2019-06-01T11:52:20.513Z,26.64
2019-06-01T11:53:20.497Z,26.73
2019-06-01T11:54:20.489Z,26.72
2019-06-01T11:55:20.471Z,26.64
2019-06-01T11:56:20.460Z,26.65
2019-06-01T11:57:20.451Z,26.59
2019-06-01T11:58:20.475Z,26.47
2019-06-01T11:59:21.293Z,26.54
2019-06-01T12:00:20.421Z,26.54
2019-06-01T12:01:20.427Z,26.64
2019-06-01T12:02:20.397Z,26.64
2019-06-01T12:03:20.388Z,26.77
2019-06-01T12:04:20.390Z,26.73
2019-06-01T12:05:20.366Z,26.80
2019-06-01T12:06:20.355Z,26.67
2019-06-01T12:07:20.348Z,26.67
2019-06-01T12:08:20.334Z,26.62
2019-06-01T12:09:20.323Z,26.62
2019-06-01T12:10:20.326Z,26.57
2019-06-01T12:11:20.303Z,26.55
2019-06-01T12:12:20.291Z,26.59
2019-06-01T12:13:20.284Z,26.50
2019-06-01T12:14:20.273Z,26.59
2019-06-01T12:15:20.263Z,26.62
2019-06-01T12:16:20.261Z,26.62
2019-06-01T12:17:20.239Z,26.50
2019-06-01T12:18:20.230Z,26.64
2019-06-01T12:19:20.220Z,26.49
2019-06-01T12:20:20.208Z,26.57
2019-06-01T12:21:20.200Z,26.54
2019-06-01T12:22:20.198Z,26.50
2019-06-01T12:23:20.176Z,26.57
2019-06-01T12:24:25.545Z,26.49
2019-06-01T12:25:21.156Z,26.59
2019-06-01T12:26:20.146Z,26.74
2019-06-01T12:27:20.142Z,26.80
2019-06-01T12:28:20.137Z,26.79
2019-06-01T12:29:20.116Z,26.79
2019-06-01T12:30:20.457Z,26.74
2019-06-01T12:31:20.093Z,26.69
2019-06-01T12:32:20.092Z,26.74
2019-06-01T12:33:20.074Z,26.68
2019-06-01T12:34:20.072Z,26.80
2019-06-01T12:35:20.055Z,26.84
2019-06-01T12:36:20.040Z,26.83
2019-06-01T12:37:34.510Z,26.83
2019-06-01T12:38:21.017Z,26.87
2019-06-01T12:39:20.009Z,26.83
2019-06-01T12:40:20.094Z,26.89
2019-06-01T12:41:19.988Z,26.83
2019-06-01T12:42:19.977Z,26.80
2019-06-01T12:43:19.965Z,26.83
2019-06-01T12:44:19.957Z,26.84
2019-06-01T12:45:22.729Z,26.89
2019-06-01T12:46:19.946Z,26.92
2019-06-01T12:47:19.924Z,26.98
2019-06-01T12:48:19.918Z,27.05
2019-06-01T12:49:19.903Z,27.09
2019-06-01T12:50:19.922Z,27.13
2019-06-01T12:51:19.883Z,27.19
2019-06-01T12:52:19.886Z,27.14